sensor_id;sensor_type;location;lat;lon;timestamp;pressure;altitude;pressure_sealevel;temperature
68012;BMP180;54794;48.348;7.878;2023-04-03T00:01:11;99732.00;;;7.90
68012;BMP180;54794;48.348;7.878;2023-04-03T00:03:39;99738.00;;;8.10
68012;BMP180;54794;48.348;7.878;2023-04-03T00:06:07;99739.00;;;7.70
68012;BMP180;54794;48.348;7.878;2023-04-03T00:08:38;99739.00;;;7.90
68012;BMP180;54794;48.348;7.878;2023-04-03T00:11:06;99743.00;;;8.10
68012;BMP180;54794;48.348;7.878;2023-04-03T00:13:34;99731.00;;;8.10
68012;BMP180;54794;48.348;7.878;2023-04-03T00:16:01;99747.00;;;7.90
68012;BMP180;54794;48.348;7.878;2023-04-03T00:18:30;99741.00;;;7.90
68012;BMP180;54794;48.348;7.878;2023-04-03T00:20:58;99740.00;;;8.10
68012;BMP180;54794;48.348;7.878;2023-04-03T00:23:25;99747.00;;;8.10
68012;BMP180;54794;48.348;7.878;2023-04-03T00:25:53;99747.00;;;8.20
68012;BMP180;54794;48.348;7.878;2023-04-03T00:28:20;99740.00;;;8.40
68012;BMP180;54794;48.348;7.878;2023-04-03T00:30:51;99752.00;;;8.20
68012;BMP180;54794;48.348;7.878;2023-04-03T00:33:19;99757.00;;;8.40
68012;BMP180;54794;48.348;7.878;2023-04-03T00:35:49;99747.00;;;8.20
68012;BMP180;54794;48.348;7.878;2023-04-03T00:38:16;99748.00;;;8.10
68012;BMP180;54794;48.348;7.878;2023-04-03T00:40:47;99747.00;;;8.30
68012;BMP180;54794;48.348;7.878;2023-04-03T00:43:21;99749.00;;;8.30
68012;BMP180;54794;48.348;7.878;2023-04-03T00:45:57;99753.00;;;8.10
68012;BMP180;54794;48.348;7.878;2023-04-03T00:51:03;99754.00;;;7.80
68012;BMP180;54794;48.348;7.878;2023-04-03T00:53:58;99751.00;;;8.30
68012;BMP180;54794;48.348;7.878;2023-04-03T00:56:28;99756.00;;;7.60
68012;BMP180;54794;48.348;7.878;2023-04-03T00:59:32;99752.00;;;7.60
68012;BMP180;54794;48.348;7.878;2023-04-03T01:02:01;99752.00;;;7.30
68012;BMP180;54794;48.348;7.878;2023-04-03T01:04:38;99749.00;;;7.50
68012;BMP180;54794;48.348;7.878;2023-04-03T01:07:14;99759.00;;;7.70
68012;BMP180;54794;48.348;7.878;2023-04-03T01:09:42;99761.00;;;7.90
68012;BMP180;54794;48.348;7.878;2023-04-03T01:14:45;99754.00;;;7.70
68012;BMP180;54794;48.348;7.878;2023-04-03T01:23:02;99745.00;;;7.70
68012;BMP180;54794;48.348;7.878;2023-04-03T01:25:34;99761.00;;;7.90
68012;BMP180;54794;48.348;7.878;2023-04-03T01:28:01;99753.00;;;7.70
68012;BMP180;54794;48.348;7.878;2023-04-03T01:30:34;99753.00;;;7.30
68012;BMP180;54794;48.348;7.878;2023-04-03T01:33:03;99756.00;;;7.50
68012;BMP180;54794;48.348;7.878;2023-04-03T01:35:30;99754.00;;;7.60
68012;BMP180;54794;48.348;7.878;2023-04-03T01:37:57;99747.00;;;7.80
68012;BMP180;54794;48.348;7.878;2023-04-03T01:40:25;99749.00;;;7.70
68012;BMP180;54794;48.348;7.878;2023-04-03T01:42:52;99747.00;;;7.80
68012;BMP180;54794;48.348;7.878;2023-04-03T01:45:18;99759.00;;;7.50
68012;BMP180;54794;48.348;7.878;2023-04-03T01:47:45;99756.00;;;7.70
68012;BMP180;54794;48.348;7.878;2023-04-03T01:50:12;99750.00;;;7.40
68012;BMP180;54794;48.348;7.878;2023-04-03T01:52:39;99748.00;;;7.80
68012;BMP180;54794;48.348;7.878;2023-04-03T01:55:07;99742.00;;;7.70
68012;BMP180;54794;48.348;7.878;2023-04-03T01:57:33;99748.00;;;8.00
68012;BMP180;54794;48.348;7.878;2023-04-03T02:00:00;99741.00;;;7.80
68012;BMP180;54794;48.348;7.878;2023-04-03T02:02:27;99742.00;;;7.80
68012;BMP180;54794;48.348;7.878;2023-04-03T02:04:54;99740.00;;;7.70
68012;BMP180;54794;48.348;7.878;2023-04-03T02:07:21;99739.00;;;7.90
68012;BMP180;54794;48.348;7.878;2023-04-03T02:09:48;99747.00;;;7.70
68012;BMP180;54794;48.348;7.878;2023-04-03T02:12:15;99744.00;;;7.90
68012;BMP180;54794;48.348;7.878;2023-04-03T02:14:42;99735.00;;;7.50
68012;BMP180;54794;48.348;7.878;2023-04-03T02:17:09;99740.00;;;7.40
68012;BMP180;54794;48.348;7.878;2023-04-03T02:19:36;99738.00;;;7.40
68012;BMP180;54794;48.348;7.878;2023-04-03T02:22:04;99747.00;;;7.50
68012;BMP180;54794;48.348;7.878;2023-04-03T02:24:32;99743.00;;;7.60
68012;BMP180;54794;48.348;7.878;2023-04-03T02:26:59;99743.00;;;7.50
68012;BMP180;54794;48.348;7.878;2023-04-03T02:29:26;99745.00;;;7.60
68012;BMP180;54794;48.348;7.878;2023-04-03T02:31:53;99744.00;;;7.80
68012;BMP180;54794;48.348;7.878;2023-04-03T02:34:20;99744.00;;;7.70
68012;BMP180;54794;48.348;7.878;2023-04-03T02:36:47;99745.00;;;7.60
68012;BMP180;54794;48.348;7.878;2023-04-03T02:39:14;99737.00;;;7.70
68012;BMP180;54794;48.348;7.878;2023-04-03T02:41:41;99740.00;;;7.70
68012;BMP180;54794;48.348;7.878;2023-04-03T02:44:10;99738.00;;;7.40
68012;BMP180;54794;48.348;7.878;2023-04-03T02:46:37;99739.00;;;7.50
68012;BMP180;54794;48.348;7.878;2023-04-03T02:49:04;99747.00;;;7.70
68012;BMP180;54794;48.348;7.878;2023-04-03T02:51:31;99737.00;;;7.30
68012;BMP180;54794;48.348;7.878;2023-04-03T02:53:58;99731.00;;;7.10
68012;BMP180;54794;48.348;7.878;2023-04-03T02:56:26;99740.00;;;7.50
68012;BMP180;54794;48.348;7.878;2023-04-03T02:58:53;99748.00;;;7.70
68012;BMP180;54794;48.348;7.878;2023-04-03T03:01:20;99742.00;;;7.50
68012;BMP180;54794;48.348;7.878;2023-04-03T03:03:47;99747.00;;;7.40
68012;BMP180;54794;48.348;7.878;2023-04-03T03:06:16;99750.00;;;7.20
68012;BMP180;54794;48.348;7.878;2023-04-03T03:08:43;99743.00;;;7.60
68012;BMP180;54794;48.348;7.878;2023-04-03T03:11:11;99735.00;;;7.60
68012;BMP180;54794;48.348;7.878;2023-04-03T03:13:39;99740.00;;;7.70
68012;BMP180;54794;48.348;7.878;2023-04-03T03:16:06;99746.00;;;7.60
68012;BMP180;54794;48.348;7.878;2023-04-03T03:18:34;99749.00;;;7.50
68012;BMP180;54794;48.348;7.878;2023-04-03T03:21:02;99757.00;;;7.40
68012;BMP180;54794;48.348;7.878;2023-04-03T03:23:31;99746.00;;;7.60
68012;BMP180;54794;48.348;7.878;2023-04-03T03:26:05;99744.00;;;7.40
68012;BMP180;54794;48.348;7.878;2023-04-03T03:28:34;99755.00;;;7.60
68012;BMP180;54794;48.348;7.878;2023-04-03T03:31:01;99741.00;;;7.40
68012;BMP180;54794;48.348;7.878;2023-04-03T03:33:28;99746.00;;;7.30
68012;BMP180;54794;48.348;7.878;2023-04-03T03:35:56;99742.00;;;7.60
68012;BMP180;54794;48.348;7.878;2023-04-03T03:38:24;99739.00;;;7.20
68012;BMP180;54794;48.348;7.878;2023-04-03T03:40:51;99738.00;;;7.30
68012;BMP180;54794;48.348;7.878;2023-04-03T03:43:18;99737.00;;;7.30
68012;BMP180;54794;48.348;7.878;2023-04-03T03:45:51;99728.00;;;7.50
68012;BMP180;54794;48.348;7.878;2023-04-03T03:48:20;99738.00;;;7.40
68012;BMP180;54794;48.348;7.878;2023-04-03T03:50:48;99735.00;;;7.60
68012;BMP180;54794;48.348;7.878;2023-04-03T03:53:15;99743.00;;;7.10
68012;BMP180;54794;48.348;7.878;2023-04-03T03:55:42;99747.00;;;7.40
68012;BMP180;54794;48.348;7.878;2023-04-03T03:58:09;99740.00;;;7.30
68012;BMP180;54794;48.348;7.878;2023-04-03T04:00:37;99736.00;;;7.30
68012;BMP180;54794;48.348;7.878;2023-04-03T04:03:03;99737.00;;;7.40
68012;BMP180;54794;48.348;7.878;2023-04-03T04:05:31;99739.00;;;7.30
68012;BMP180;54794;48.348;7.878;2023-04-03T04:07:58;99739.00;;;7.30
68012;BMP180;54794;48.348;7.878;2023-04-03T04:10:25;99743.00;;;7.20
68012;BMP180;54794;48.348;7.878;2023-04-03T04:12:52;99741.00;;;7.10
68012;BMP180;54794;48.348;7.878;2023-04-03T04:15:19;99732.00;;;7.40
68012;BMP180;54794;48.348;7.878;2023-04-03T04:17:48;99734.00;;;7.00
68012;BMP180;54794;48.348;7.878;2023-04-03T04:20:15;99746.00;;;7.00
68012;BMP180;54794;48.348;7.878;2023-04-03T04:22:42;99747.00;;;6.70
68012;BMP180;54794;48.348;7.878;2023-04-03T04:25:09;99753.00;;;6.90
68012;BMP180;54794;48.348;7.878;2023-04-03T04:27:37;99749.00;;;6.80
68012;BMP180;54794;48.348;7.878;2023-04-03T04:30:05;99756.00;;;6.90
68012;BMP180;54794;48.348;7.878;2023-04-03T04:32:32;99751.00;;;7.00
68012;BMP180;54794;48.348;7.878;2023-04-03T04:34:59;99759.00;;;6.90
68012;BMP180;54794;48.348;7.878;2023-04-03T04:37:26;99757.00;;;6.90
68012;BMP180;54794;48.348;7.878;2023-04-03T04:39:53;99756.00;;;6.60
68012;BMP180;54794;48.348;7.878;2023-04-03T04:42:19;99755.00;;;7.00
68012;BMP180;54794;48.348;7.878;2023-04-03T04:44:46;99761.00;;;7.10
68012;BMP180;54794;48.348;7.878;2023-04-03T04:47:13;99760.00;;;6.80
68012;BMP180;54794;48.348;7.878;2023-04-03T04:49:40;99771.00;;;7.10
68012;BMP180;54794;48.348;7.878;2023-04-03T04:52:08;99761.00;;;7.20
68012;BMP180;54794;48.348;7.878;2023-04-03T04:55:31;99766.00;;;7.00
68012;BMP180;54794;48.348;7.878;2023-04-03T04:57:58;99755.00;;;6.80
68012;BMP180;54794;48.348;7.878;2023-04-03T05:00:25;99752.00;;;6.80
68012;BMP180;54794;48.348;7.878;2023-04-03T05:02:52;99759.00;;;6.70
68012;BMP180;54794;48.348;7.878;2023-04-03T05:05:19;99759.00;;;6.90
68012;BMP180;54794;48.348;7.878;2023-04-03T05:07:46;99763.00;;;6.80
68012;BMP180;54794;48.348;7.878;2023-04-03T05:10:22;99771.00;;;6.70
68012;BMP180;54794;48.348;7.878;2023-04-03T05:13:03;99759.00;;;6.80
68012;BMP180;54794;48.348;7.878;2023-04-03T05:15:30;99778.00;;;6.50
68012;BMP180;54794;48.348;7.878;2023-04-03T05:18:06;99773.00;;;6.60
68012;BMP180;54794;48.348;7.878;2023-04-03T05:20:53;99775.00;;;6.70
68012;BMP180;54794;48.348;7.878;2023-04-03T05:23:20;99765.00;;;6.80
68012;BMP180;54794;48.348;7.878;2023-04-03T05:25:47;99770.00;;;6.60
68012;BMP180;54794;48.348;7.878;2023-04-03T05:28:18;99765.00;;;6.70
68012;BMP180;54794;48.348;7.878;2023-04-03T05:33:53;99781.00;;;7.00
68012;BMP180;54794;48.348;7.878;2023-04-03T05:36:32;99775.00;;;7.00
68012;BMP180;54794;48.348;7.878;2023-04-03T05:38:59;99786.00;;;6.80
68012;BMP180;54794;48.348;7.878;2023-04-03T05:41:29;99768.00;;;7.20
68012;BMP180;54794;48.348;7.878;2023-04-03T05:43:58;99779.00;;;6.90
68012;BMP180;54794;48.348;7.878;2023-04-03T05:46:25;99775.00;;;6.90
68012;BMP180;54794;48.348;7.878;2023-04-03T05:48:53;99786.00;;;7.00
68012;BMP180;54794;48.348;7.878;2023-04-03T05:51:28;99787.00;;;6.80
68012;BMP180;54794;48.348;7.878;2023-04-03T05:54:08;99788.00;;;6.70
68012;BMP180;54794;48.348;7.878;2023-04-03T05:56:36;99786.00;;;6.90
68012;BMP180;54794;48.348;7.878;2023-04-03T05:59:03;99794.00;;;6.90
68012;BMP180;54794;48.348;7.878;2023-04-03T06:01:30;99792.00;;;7.00
68012;BMP180;54794;48.348;7.878;2023-04-03T06:03:57;99797.00;;;7.10
68012;BMP180;54794;48.348;7.878;2023-04-03T06:06:26;99801.00;;;7.00
68012;BMP180;54794;48.348;7.878;2023-04-03T06:08:53;99793.00;;;7.40
68012;BMP180;54794;48.348;7.878;2023-04-03T06:11:31;99801.00;;;7.20
68012;BMP180;54794;48.348;7.878;2023-04-03T06:14:09;99799.00;;;7.30
68012;BMP180;54794;48.348;7.878;2023-04-03T06:16:39;99789.00;;;7.30
68012;BMP180;54794;48.348;7.878;2023-04-03T06:19:07;99794.00;;;7.20
68012;BMP180;54794;48.348;7.878;2023-04-03T06:21:35;99793.00;;;7.10
68012;BMP180;54794;48.348;7.878;2023-04-03T06:24:06;99801.00;;;7.60
68012;BMP180;54794;48.348;7.878;2023-04-03T06:26:39;99793.00;;;7.40
68012;BMP180;54794;48.348;7.878;2023-04-03T06:29:40;99800.00;;;7.30
68012;BMP180;54794;48.348;7.878;2023-04-03T06:32:06;99790.00;;;7.80
68012;BMP180;54794;48.348;7.878;2023-04-03T06:34:33;99795.00;;;7.90
68012;BMP180;54794;48.348;7.878;2023-04-03T06:37:00;99798.00;;;8.10
68012;BMP180;54794;48.348;7.878;2023-04-03T06:39:27;99790.00;;;7.80
68012;BMP180;54794;48.348;7.878;2023-04-03T06:41:54;99793.00;;;7.80
68012;BMP180;54794;48.348;7.878;2023-04-03T06:44:21;99789.00;;;7.80
68012;BMP180;54794;48.348;7.878;2023-04-03T06:46:49;99790.00;;;8.10
68012;BMP180;54794;48.348;7.878;2023-04-03T06:49:16;99797.00;;;7.90
68012;BMP180;54794;48.348;7.878;2023-04-03T06:51:43;99797.00;;;8.00
68012;BMP180;54794;48.348;7.878;2023-04-03T06:54:10;99793.00;;;8.10
68012;BMP180;54794;48.348;7.878;2023-04-03T06:56:37;99800.00;;;8.40
68012;BMP180;54794;48.348;7.878;2023-04-03T06:59:04;99793.00;;;8.00
68012;BMP180;54794;48.348;7.878;2023-04-03T07:01:36;99798.00;;;8.10
68012;BMP180;54794;48.348;7.878;2023-04-03T07:04:26;99799.00;;;8.20
68012;BMP180;54794;48.348;7.878;2023-04-03T07:07:22;99812.00;;;8.40
68012;BMP180;54794;48.348;7.878;2023-04-03T07:09:52;99802.00;;;8.70
68012;BMP180;54794;48.348;7.878;2023-04-03T07:13:24;99807.00;;;8.60
68012;BMP180;54794;48.348;7.878;2023-04-03T07:19:48;99829.00;;;8.90
68012;BMP180;54794;48.348;7.878;2023-04-03T07:22:16;99828.00;;;8.30
68012;BMP180;54794;48.348;7.878;2023-04-03T07:24:51;99812.00;;;8.80
68012;BMP180;54794;48.348;7.878;2023-04-03T07:27:24;99822.00;;;9.10
68012;BMP180;54794;48.348;7.878;2023-04-03T07:30:03;99826.00;;;8.80
68012;BMP180;54794;48.348;7.878;2023-04-03T07:32:38;99826.00;;;9.10
68012;BMP180;54794;48.348;7.878;2023-04-03T07:35:09;99823.00;;;9.30
68012;BMP180;54794;48.348;7.878;2023-04-03T07:37:45;99829.00;;;9.30
68012;BMP180;54794;48.348;7.878;2023-04-03T07:40:33;99842.00;;;9.20
68012;BMP180;54794;48.348;7.878;2023-04-03T07:43:10;99831.00;;;8.80
68012;BMP180;54794;48.348;7.878;2023-04-03T07:45:38;99827.00;;;8.90
68012;BMP180;54794;48.348;7.878;2023-04-03T07:48:05;99836.00;;;9.10
68012;BMP180;54794;48.348;7.878;2023-04-03T07:50:45;99843.00;;;8.80
68012;BMP180;54794;48.348;7.878;2023-04-03T07:54:01;99835.00;;;8.80
68012;BMP180;54794;48.348;7.878;2023-04-03T07:56:30;99841.00;;;8.90
68012;BMP180;54794;48.348;7.878;2023-04-03T07:59:08;99839.00;;;9.30
68012;BMP180;54794;48.348;7.878;2023-04-03T08:01:35;99842.00;;;9.50
68012;BMP180;54794;48.348;7.878;2023-04-03T08:04:02;99844.00;;;9.70
68012;BMP180;54794;48.348;7.878;2023-04-03T08:06:31;99845.00;;;9.10
68012;BMP180;54794;48.348;7.878;2023-04-03T08:09:15;99853.00;;;9.00
68012;BMP180;54794;48.348;7.878;2023-04-03T08:12:08;99862.00;;;8.80
68012;BMP180;54794;48.348;7.878;2023-04-03T08:19:42;99846.00;;;9.10
68012;BMP180;54794;48.348;7.878;2023-04-03T08:22:57;99851.00;;;8.50
68012;BMP180;54794;48.348;7.878;2023-04-03T08:29:40;99863.00;;;9.20
68012;BMP180;54794;48.348;7.878;2023-04-03T08:32:09;99859.00;;;9.00
68012;BMP180;54794;48.348;7.878;2023-04-03T08:35:42;99869.00;;;9.50
68012;BMP180;54794;48.348;7.878;2023-04-03T08:38:55;99865.00;;;9.10
68012;BMP180;54794;48.348;7.878;2023-04-03T08:41:43;99865.00;;;8.70
68012;BMP180;54794;48.348;7.878;2023-04-03T08:47:47;99868.00;;;9.60
68012;BMP180;54794;48.348;7.878;2023-04-03T08:50:46;99864.00;;;9.00
68012;BMP180;54794;48.348;7.878;2023-04-03T08:53:35;99872.00;;;8.80
68012;BMP180;54794;48.348;7.878;2023-04-03T08:56:15;99879.00;;;8.80
68012;BMP180;54794;48.348;7.878;2023-04-03T08:58:58;99887.00;;;8.70
68012;BMP180;54794;48.348;7.878;2023-04-03T09:01:34;99896.00;;;8.90
68012;BMP180;54794;48.348;7.878;2023-04-03T09:04:16;99910.00;;;8.80
68012;BMP180;54794;48.348;7.878;2023-04-03T09:06:55;99893.00;;;8.50
68012;BMP180;54794;48.348;7.878;2023-04-03T09:09:36;99895.00;;;8.80
68012;BMP180;54794;48.348;7.878;2023-04-03T09:12:34;99898.00;;;8.90
68012;BMP180;54794;48.348;7.878;2023-04-03T09:15:21;99898.00;;;8.90
68012;BMP180;54794;48.348;7.878;2023-04-03T09:18:30;99897.00;;;9.20
68012;BMP180;54794;48.348;7.878;2023-04-03T09:24:01;99904.00;;;8.60
68012;BMP180;54794;48.348;7.878;2023-04-03T09:27:14;99909.00;;;8.00
68012;BMP180;54794;48.348;7.878;2023-04-03T09:30:03;99902.00;;;7.90
68012;BMP180;54794;48.348;7.878;2023-04-03T09:32:38;99897.00;;;8.50
68012;BMP180;54794;48.348;7.878;2023-04-03T09:35:23;99897.00;;;8.60
68012;BMP180;54794;48.348;7.878;2023-04-03T09:41:21;99906.00;;;8.20
68012;BMP180;54794;48.348;7.878;2023-04-03T09:44:27;99897.00;;;8.60
68012;BMP180;54794;48.348;7.878;2023-04-03T09:47:48;99896.00;;;8.80
68012;BMP180;54794;48.348;7.878;2023-04-03T09:53:55;99889.00;;;9.10
68012;BMP180;54794;48.348;7.878;2023-04-03T09:56:30;99887.00;;;9.30
68012;BMP180;54794;48.348;7.878;2023-04-03T09:59:22;99887.00;;;8.90
68012;BMP180;54794;48.348;7.878;2023-04-03T10:06:22;99896.00;;;9.60
68012;BMP180;54794;48.348;7.878;2023-04-03T10:09:03;99879.00;;;10.10
68012;BMP180;54794;48.348;7.878;2023-04-03T10:11:32;99890.00;;;9.90
68012;BMP180;54794;48.348;7.878;2023-04-03T10:14:03;99884.00;;;9.90
68012;BMP180;54794;48.348;7.878;2023-04-03T10:16:41;99878.00;;;10.10
68012;BMP180;54794;48.348;7.878;2023-04-03T10:25:37;99866.00;;;10.20
68012;BMP180;54794;48.348;7.878;2023-04-03T10:31:15;99859.00;;;10.50
68012;BMP180;54794;48.348;7.878;2023-04-03T10:40:59;99865.00;;;10.50
68012;BMP180;54794;48.348;7.878;2023-04-03T10:47:20;99851.00;;;10.60
68012;BMP180;54794;48.348;7.878;2023-04-03T10:56:37;99837.00;;;9.50
68012;BMP180;54794;48.348;7.878;2023-04-03T10:59:48;99848.00;;;9.70
68012;BMP180;54794;48.348;7.878;2023-04-03T11:05:40;99848.00;;;10.80
68012;BMP180;54794;48.348;7.878;2023-04-03T11:09:07;99820.00;;;11.60
68012;BMP180;54794;48.348;7.878;2023-04-03T11:11:44;99805.00;;;11.70
68012;BMP180;54794;48.348;7.878;2023-04-03T11:14:31;99809.00;;;11.60
68012;BMP180;54794;48.348;7.878;2023-04-03T11:22:34;99808.00;;;10.90
68012;BMP180;54794;48.348;7.878;2023-04-03T11:25:29;99809.00;;;10.60
68012;BMP180;54794;48.348;7.878;2023-04-03T11:28:09;99811.00;;;10.60
68012;BMP180;54794;48.348;7.878;2023-04-03T11:34:37;99823.00;;;10.60
68012;BMP180;54794;48.348;7.878;2023-04-03T11:43:24;99812.00;;;11.10
68012;BMP180;54794;48.348;7.878;2023-04-03T11:46:19;99799.00;;;10.60
68012;BMP180;54794;48.348;7.878;2023-04-03T11:48:57;99806.00;;;10.50
68012;BMP180;54794;48.348;7.878;2023-04-03T11:51:49;99809.00;;;10.60
68012;BMP180;54794;48.348;7.878;2023-04-03T11:57:45;99789.00;;;10.80
68012;BMP180;54794;48.348;7.878;2023-04-03T12:00:55;99800.00;;;10.70
68012;BMP180;54794;48.348;7.878;2023-04-03T12:12:58;99791.00;;;10.90
68012;BMP180;54794;48.348;7.878;2023-04-03T12:15:50;99798.00;;;10.40
68012;BMP180;54794;48.348;7.878;2023-04-03T12:18:55;99783.00;;;10.70
68012;BMP180;54794;48.348;7.878;2023-04-03T12:29:34;99788.00;;;11.50
68012;BMP180;54794;48.348;7.878;2023-04-03T12:32:36;99790.00;;;11.50
68012;BMP180;54794;48.348;7.878;2023-04-03T12:35:23;99791.00;;;10.60
68012;BMP180;54794;48.348;7.878;2023-04-03T12:47:27;99788.00;;;11.10
68012;BMP180;54794;48.348;7.878;2023-04-03T12:50:04;99788.00;;;11.00
68012;BMP180;54794;48.348;7.878;2023-04-03T12:56:27;99786.00;;;11.00
68012;BMP180;54794;48.348;7.878;2023-04-03T12:59:32;99787.00;;;10.60
68012;BMP180;54794;48.348;7.878;2023-04-03T13:06:21;99783.00;;;10.90
68012;BMP180;54794;48.348;7.878;2023-04-03T13:09:06;99782.00;;;11.00
68012;BMP180;54794;48.348;7.878;2023-04-03T13:11:57;99778.00;;;11.10
68012;BMP180;54794;48.348;7.878;2023-04-03T13:14:31;99785.00;;;10.90
68012;BMP180;54794;48.348;7.878;2023-04-03T13:17:15;99790.00;;;11.40
68012;BMP180;54794;48.348;7.878;2023-04-03T13:19:48;99786.00;;;11.00
68012;BMP180;54794;48.348;7.878;2023-04-03T13:22:55;99788.00;;;10.60
68012;BMP180;54794;48.348;7.878;2023-04-03T13:25:37;99788.00;;;10.30
68012;BMP180;54794;48.348;7.878;2023-04-03T13:28:28;99792.00;;;10.30
68012;BMP180;54794;48.348;7.878;2023-04-03T13:31:22;99784.00;;;10.20
68012;BMP180;54794;48.348;7.878;2023-04-03T13:37:01;99769.00;;;10.80
68012;BMP180;54794;48.348;7.878;2023-04-03T13:39:38;99770.00;;;10.70
68012;BMP180;54794;48.348;7.878;2023-04-03T13:42:24;99779.00;;;10.40
68012;BMP180;54794;48.348;7.878;2023-04-03T13:45:22;99783.00;;;10.30
68012;BMP180;54794;48.348;7.878;2023-04-03T13:48:16;99774.00;;;10.40
68012;BMP180;54794;48.348;7.878;2023-04-03T13:51:04;99778.00;;;10.40
68012;BMP180;54794;48.348;7.878;2023-04-03T13:53:34;99774.00;;;10.20
68012;BMP180;54794;48.348;7.878;2023-04-03T13:56:19;99781.00;;;10.40
68012;BMP180;54794;48.348;7.878;2023-04-03T14:01:48;99765.00;;;10.40
68012;BMP180;54794;48.348;7.878;2023-04-03T14:04:25;99761.00;;;10.30
68012;BMP180;54794;48.348;7.878;2023-04-03T14:06:55;99762.00;;;10.50
68012;BMP180;54794;48.348;7.878;2023-04-03T14:09:34;99760.00;;;10.50
68012;BMP180;54794;48.348;7.878;2023-04-03T14:12:16;99754.00;;;10.70
68012;BMP180;54794;48.348;7.878;2023-04-03T14:15:04;99754.00;;;10.40
68012;BMP180;54794;48.348;7.878;2023-04-03T14:17:43;99747.00;;;10.00
68012;BMP180;54794;48.348;7.878;2023-04-03T14:20:19;99759.00;;;10.30
68012;BMP180;54794;48.348;7.878;2023-04-03T14:22:55;99763.00;;;10.10
68012;BMP180;54794;48.348;7.878;2023-04-03T14:25:26;99765.00;;;10.10
68012;BMP180;54794;48.348;7.878;2023-04-03T14:27:58;99757.00;;;10.00
68012;BMP180;54794;48.348;7.878;2023-04-03T14:30:44;99758.00;;;10.00
68012;BMP180;54794;48.348;7.878;2023-04-03T14:33:21;99761.00;;;10.00
68012;BMP180;54794;48.348;7.878;2023-04-03T14:35:53;99759.00;;;9.90
68012;BMP180;54794;48.348;7.878;2023-04-03T14:38:31;99762.00;;;10.00
68012;BMP180;54794;48.348;7.878;2023-04-03T14:41:18;99754.00;;;10.10
68012;BMP180;54794;48.348;7.878;2023-04-03T14:43:58;99768.00;;;10.10
68012;BMP180;54794;48.348;7.878;2023-04-03T14:46:42;99762.00;;;10.10
68012;BMP180;54794;48.348;7.878;2023-04-03T14:49:33;99771.00;;;10.10
68012;BMP180;54794;48.348;7.878;2023-04-03T14:52:03;99759.00;;;9.90
68012;BMP180;54794;48.348;7.878;2023-04-03T14:54:30;99751.00;;;9.50
68012;BMP180;54794;48.348;7.878;2023-04-03T14:57:00;99769.00;;;9.70
68012;BMP180;54794;48.348;7.878;2023-04-03T14:59:45;99763.00;;;9.70
68012;BMP180;54794;48.348;7.878;2023-04-03T15:02:33;99758.00;;;9.60
68012;BMP180;54794;48.348;7.878;2023-04-03T15:05:08;99763.00;;;9.70
68012;BMP180;54794;48.348;7.878;2023-04-03T15:12:03;99756.00;;;9.80
68012;BMP180;54794;48.348;7.878;2023-04-03T15:15:01;99762.00;;;9.60
68012;BMP180;54794;48.348;7.878;2023-04-03T15:17:39;99750.00;;;9.50
68012;BMP180;54794;48.348;7.878;2023-04-03T15:20:19;99745.00;;;9.70
68012;BMP180;54794;48.348;7.878;2023-04-03T15:22:47;99753.00;;;9.70
68012;BMP180;54794;48.348;7.878;2023-04-03T15:25:14;99757.00;;;9.40
68012;BMP180;54794;48.348;7.878;2023-04-03T15:27:42;99764.00;;;9.50
68012;BMP180;54794;48.348;7.878;2023-04-03T15:30:14;99761.00;;;9.30
68012;BMP180;54794;48.348;7.878;2023-04-03T15:32:55;99752.00;;;9.30
68012;BMP180;54794;48.348;7.878;2023-04-03T15:35:23;99755.00;;;9.50
68012;BMP180;54794;48.348;7.878;2023-04-03T15:37:50;99760.00;;;9.50
68012;BMP180;54794;48.348;7.878;2023-04-03T15:40:17;99759.00;;;9.30
68012;BMP180;54794;48.348;7.878;2023-04-03T15:42:47;99766.00;;;9.30
68012;BMP180;54794;48.348;7.878;2023-04-03T15:45:44;99758.00;;;9.40
68012;BMP180;54794;48.348;7.878;2023-04-03T15:48:12;99771.00;;;9.30
68012;BMP180;54794;48.348;7.878;2023-04-03T15:50:39;99767.00;;;9.50
68012;BMP180;54794;48.348;7.878;2023-04-03T15:53:28;99760.00;;;9.10
68012;BMP180;54794;48.348;7.878;2023-04-03T15:56:32;99768.00;;;9.10
68012;BMP180;54794;48.348;7.878;2023-04-03T16:06:45;99745.00;;;9.40
68012;BMP180;54794;48.348;7.878;2023-04-03T16:09:12;99746.00;;;9.20
68012;BMP180;54794;48.348;7.878;2023-04-03T16:11:46;99754.00;;;9.20
68012;BMP180;54794;48.348;7.878;2023-04-03T16:14:18;99752.00;;;9.10
68012;BMP180;54794;48.348;7.878;2023-04-03T16:16:45;99752.00;;;9.30
68012;BMP180;54794;48.348;7.878;2023-04-03T16:19:15;99751.00;;;9.20
68012;BMP180;54794;48.348;7.878;2023-04-03T16:21:42;99763.00;;;9.20
68012;BMP180;54794;48.348;7.878;2023-04-03T16:24:13;99756.00;;;9.30
68012;BMP180;54794;48.348;7.878;2023-04-03T16:26:44;99755.00;;;9.30
68012;BMP180;54794;48.348;7.878;2023-04-03T16:29:11;99768.00;;;9.00
68012;BMP180;54794;48.348;7.878;2023-04-03T16:31:38;99762.00;;;9.20
68012;BMP180;54794;48.348;7.878;2023-04-03T16:34:05;99771.00;;;9.00
68012;BMP180;54794;48.348;7.878;2023-04-03T16:36:50;99765.00;;;9.00
68012;BMP180;54794;48.348;7.878;2023-04-03T16:39:19;99761.00;;;9.10
68012;BMP180;54794;48.348;7.878;2023-04-03T16:41:46;99760.00;;;8.90
68012;BMP180;54794;48.348;7.878;2023-04-03T16:44:13;99765.00;;;9.00
68012;BMP180;54794;48.348;7.878;2023-04-03T16:46:40;99762.00;;;9.10
68012;BMP180;54794;48.348;7.878;2023-04-03T16:49:15;99760.00;;;9.20
68012;BMP180;54794;48.348;7.878;2023-04-03T16:51:51;99756.00;;;9.00
68012;BMP180;54794;48.348;7.878;2023-04-03T16:54:22;99765.00;;;8.90
68012;BMP180;54794;48.348;7.878;2023-04-03T16:56:52;99762.00;;;9.20
68012;BMP180;54794;48.348;7.878;2023-04-03T16:59:19;99768.00;;;9.20
68012;BMP180;54794;48.348;7.878;2023-04-03T17:05:59;99782.00;;;9.00
68012;BMP180;54794;48.348;7.878;2023-04-03T17:08:34;99788.00;;;9.20
68012;BMP180;54794;48.348;7.878;2023-04-03T17:11:01;99780.00;;;8.90
68012;BMP180;54794;48.348;7.878;2023-04-03T17:13:28;99788.00;;;8.90
68012;BMP180;54794;48.348;7.878;2023-04-03T17:15:59;99784.00;;;9.00
68012;BMP180;54794;48.348;7.878;2023-04-03T17:18:38;99781.00;;;8.50
68012;BMP180;54794;48.348;7.878;2023-04-03T17:21:08;99788.00;;;8.80
68012;BMP180;54794;48.348;7.878;2023-04-03T17:23:36;99787.00;;;8.70
68012;BMP180;54794;48.348;7.878;2023-04-03T17:26:04;99780.00;;;8.50
68012;BMP180;54794;48.348;7.878;2023-04-03T17:28:49;99785.00;;;8.80
68012;BMP180;54794;48.348;7.878;2023-04-03T17:31:16;99796.00;;;8.80
68012;BMP180;54794;48.348;7.878;2023-04-03T17:33:44;99784.00;;;8.90
68012;BMP180;54794;48.348;7.878;2023-04-03T17:36:11;99784.00;;;8.70